Time,TemperatureF,DewpointF,PressureIn,WindDirection,WindDirectionDegrees,WindSpeedMPH,WindSpeedGustMPH,Humidity,HourlyPrecipIn,Conditions,Clouds,dailyrainin,SoftwareType,DateUTC
2013-02-23 00:03:00,39.0,-99.9,30.25,ESE,117,3.0,6.0,-999,-99.99,,,-99.99,,2013-02-23 05:03:00,
2013-02-23 00:12:00,39.0,-99.9,30.24,SSE,147,4.0,6.0,-999,-99.99,,,-99.99,,2013-02-23 05:12:00,
2013-02-23 00:23:00,39.0,-99.9,30.24,SE,125,7.0,10.0,-999,-99.99,,,-99.99,,2013-02-23 05:23:00,
2013-02-23 00:33:00,39.0,-99.9,30.25,SE,130,6.0,9.0,-999,-99.99,,,-99.99,,2013-02-23 05:33:00,
2013-02-23 00:42:00,39.0,-99.9,30.25,SE,139,7.0,10.0,-999,-99.99,,,-99.99,,2013-02-23 05:42:00,
2013-02-23 00:52:00,39.0,-99.9,30.26,SE,131,4.0,7.0,-999,-99.99,,,-99.99,,2013-02-23 05:52:00,
2013-02-23 01:02:00,39.0,-99.9,30.26,SE,142,3.0,5.0,-999,-99.99,,,-99.99,,2013-02-23 06:02:00,
2013-02-23 01:11:00,39.0,-99.9,30.25,SE,131,5.0,8.0,-999,-99.99,,,-99.99,,2013-02-23 06:11:00,
2013-02-23 01:23:00,39.0,-99.9,30.25,SSE,148,5.0,8.0,-999,-99.99,,,-99.99,,2013-02-23 06:23:00,
2013-02-23 01:32:00,38.0,-99.9,30.25,SE,138,3.0,5.0,-999,-99.99,,,-99.99,,2013-02-23 06:32:00,
2013-02-23 01:42:00,38.0,-99.9,30.24,SE,138,4.0,7.0,-999,-99.99,,,-99.99,,2013-02-23 06:42:00,
2013-02-23 01:52:00,38.0,-99.9,30.24,SSE,150,5.0,9.0,-999,-99.99,,,-99.99,,2013-02-23 06:52:00,
2013-02-23 02:01:00,38.0,-99.9,30.24,SE,129,6.0,9.0,-999,-99.99,,,-99.99,,2013-02-23 07:01:00,
2013-02-23 02:11:00,38.0,-99.9,30.23,SE,146,5.0,7.0,-999,-99.99,,,-99.99,,2013-02-23 07:11:00,
2013-02-23 02:21:00,38.0,-99.9,30.23,ESE,117,4.0,6.0,-999,-99.99,,,-99.99,,2013-02-23 07:21:00,
2013-02-23 02:32:00,37.0,-99.9,30.23,ESE,111,4.0,7.0,-999,-99.99,,,-99.99,,2013-02-23 07:32:00,
2013-02-23 02:42:00,37.0,-99.9,30.22,ESE,115,5.0,6.0,-999,-99.99,,,-99.99,,2013-02-23 07:42:00,
2013-02-23 02:52:00,37.0,-99.9,30.21,East,100,4.0,8.0,-999,-99.99,,,-99.99,,2013-02-23 07:52:00,
2013-02-23 03:01:00,37.0,-99.9,30.21,ESE,105,5.0,6.0,-999,-99.99,,,-99.99,,2013-02-23 08:01:00,
2013-02-23 03:11:00,37.0,-99.9,30.19,ESE,113,4.0,6.0,-999,-99.99,,,-99.99,,2013-02-23 08:11:00,
2013-02-23 03:21:00,38.0,-99.9,30.19,East,99,5.0,6.0,-999,-99.99,,,-99.99,,2013-02-23 08:21:00,
2013-02-23 03:32:00,38.0,-99.9,30.19,East,101,4.0,7.0,-999,-99.99,,,-99.99,,2013-02-23 08:32:00,
2013-02-23 03:42:00,38.0,-99.9,30.19,ESE,103,5.0,7.0,-999,-99.99,,,-99.99,,2013-02-23 08:42:00,
2013-02-23 03:53:00,38.0,-99.9,30.18,ESE,113,5.0,6.0,-999,-99.99,,,-99.99,,2013-02-23 08:53:00,
2013-02-23 04:02:00,38.0,-99.9,30.18,ESE,102,4.0,6.0,-999,-99.99,,,-99.99,,2013-02-23 09:02:00,
2013-02-23 04:11:00,38.0,-99.9,30.18,ESE,114,4.0,5.0,-999,-99.99,,,-99.99,,2013-02-23 09:11:00,
2013-02-23 04:22:00,38.0,-99.9,30.17,East,94,4.0,6.0,-999,-99.99,,,-99.99,,2013-02-23 09:22:00,
2013-02-23 04:32:00,38.0,-99.9,30.17,ESE,108,4.0,5.0,-999,-99.99,,,-99.99,,2013-02-23 09:32:00,
2013-02-23 04:42:00,38.0,-99.9,30.17,ESE,107,5.0,7.0,-999,-99.99,,,-99.99,,2013-02-23 09:42:00,
2013-02-23 04:52:00,38.0,-99.9,30.16,ESE,109,4.0,7.0,-999,-99.99,,,-99.99,,2013-02-23 09:52:00,
2013-02-23 05:01:00,38.0,-99.9,30.16,ESE,102,4.0,5.0,-999,-99.99,,,-99.99,,2013-02-23 10:01:00,
2013-02-23 05:11:00,38.0,-99.9,30.16,East,95,3.0,4.0,-999,-99.99,,,-99.99,,2013-02-23 10:11:00,
2013-02-23 05:21:00,38.0,-99.9,30.16,East,94,5.0,6.0,-999,-99.99,,,-99.99,,2013-02-23 10:21:00,
2013-02-23 05:32:00,38.0,-99.9,30.15,East,94,3.0,4.0,-999,-99.99,,,-99.99,,2013-02-23 10:32:00,
2013-02-23 05:42:00,38.0,-99.9,30.15,East,96,3.0,5.0,-999,-99.99,,,-99.99,,2013-02-23 10:42:00,
2013-02-23 05:52:00,38.0,-99.9,30.16,ESE,102,4.0,5.0,-999,-99.99,,,-99.99,,2013-02-23 10:52:00,
2013-02-23 06:02:00,38.0,-99.9,30.15,East,96,5.0,8.0,-999,-99.99,,,-99.99,,2013-02-23 11:02:00,
2013-02-23 06:11:00,38.0,-99.9,30.14,East,96,6.0,8.0,-999,-99.99,,,-99.99,,2013-02-23 11:11:00,
2013-02-23 06:22:00,38.0,-99.9,30.14,East,93,3.0,5.0,-999,-99.99,,,-99.99,,2013-02-23 11:22:00,
2013-02-23 06:32:00,38.0,-99.9,30.14,East,91,3.0,4.0,-999,-99.99,,,-99.99,,2013-02-23 11:32:00,
2013-02-23 06:42:00,38.0,-99.9,30.14,East,89,4.0,5.0,-999,-99.99,,,-99.99,,2013-02-23 11:42:00,
2013-02-23 06:53:00,38.0,-99.9,30.14,ENE,78,3.0,4.0,-999,-99.99,,,-99.99,,2013-02-23 11:53:00,
2013-02-23 07:02:00,38.0,-99.9,30.14,ENE,77,2.0,4.0,-999,-99.99,,,-99.99,,2013-02-23 12:02:00,
2013-02-23 07:11:00,38.0,-99.9,30.14,East,79,3.0,5.0,-999,-99.99,,,-99.99,,2013-02-23 12:11:00,
2013-02-23 07:22:00,38.0,-99.9,30.13,ENE,71,3.0,5.0,-999,-99.99,,,-99.99,,2013-02-23 12:22:00,
2013-02-23 07:32:00,38.0,-99.9,30.13,ENE,70,3.0,5.0,-999,-99.99,,,-99.99,,2013-02-23 12:32:00,
2013-02-23 07:42:00,39.0,-99.9,30.13,East,81,5.0,8.0,-999,-99.99,,,-99.99,,2013-02-23 12:42:00,
2013-02-23 07:53:00,39.0,-99.9,30.13,East,84,5.0,8.0,-999,-99.99,,,-99.99,,2013-02-23 12:53:00,
2013-02-23 08:02:00,39.0,-99.9,30.13,East,91,6.0,9.0,-999,-99.99,,,-99.99,,2013-02-23 13:02:00,
2013-02-23 08:12:00,39.0,-99.9,30.12,East,96,6.0,9.0,-999,-99.99,,,-99.99,,2013-02-23 13:12:00,
2013-02-23 08:22:00,39.0,-99.9,30.12,East,92,6.0,9.0,-999,-99.99,,,-99.99,,2013-02-23 13:22:00,
2013-02-23 08:32:00,39.0,-99.9,30.11,ESE,105,7.0,11.0,-999,-99.99,,,-99.99,,2013-02-23 13:32:00,
2013-02-23 08:42:00,40.0,-99.9,30.11,ESE,105,7.0,9.0,-999,-99.99,,,-99.99,,2013-02-23 13:42:00,
2013-02-23 08:52:00,40.0,-99.9,30.11,East,98,7.0,9.0,-999,-99.99,,,-99.99,,2013-02-23 13:52:00,
2013-02-23 09:02:00,40.0,-99.9,30.11,East,91,5.0,6.0,-999,-99.99,,,-99.99,,2013-02-23 14:02:00,
2013-02-23 09:11:00,40.0,-99.9,30.11,East,93,6.0,9.0,-999,-99.99,,,-99.99,,2013-02-23 14:11:00,
2013-02-23 09:22:00,40.0,-99.9,30.11,East,93,6.0,8.0,-999,-99.99,,,-99.99,,2013-02-23 14:22:00,
2013-02-23 09:33:00,40.0,-99.9,30.10,East,91,6.0,7.0,-999,-99.99,,,-99.99,,2013-02-23 14:33:00,
2013-02-23 09:42:00,40.0,-99.9,30.09,East,89,5.0,7.0,-999,-99.99,,,-99.99,,2013-02-23 14:42:00,
2013-02-23 09:52:00,40.0,-99.9,30.09,East,86,6.0,9.0,-999,-99.99,,,-99.99,,2013-02-23 14:52:00,
2013-02-23 10:02:00,40.0,-99.9,30.08,East,90,5.0,8.0,-999,-99.99,,,-99.99,,2013-02-23 15:02:00,
2013-02-23 10:11:00,41.0,-99.9,30.08,East,87,5.0,6.0,-999,-99.99,,,-99.99,,2013-02-23 15:11:00,
2013-02-23 10:22:00,41.0,-99.9,30.07,East,82,5.0,9.0,-999,-99.99,,,-99.99,,2013-02-23 15:22:00,
2013-02-23 10:32:00,41.0,-99.9,30.06,East,90,4.0,6.0,-999,-99.99,,,-99.99,,2013-02-23 15:32:00,
2013-02-23 10:42:00,41.0,-99.9,30.07,East,92,4.0,6.0,-999,-99.99,,,-99.99,,2013-02-23 15:42:00,
2013-02-23 10:52:00,41.0,-99.9,30.06,East,88,4.0,6.0,-999,-99.99,,,-99.99,,2013-02-23 15:52:00,
2013-02-23 11:01:00,41.0,-99.9,30.06,East,90,3.0,7.0,-999,-99.99,,,-99.99,,2013-02-23 16:01:00,
2013-02-23 11:11:00,42.0,-99.9,30.06,East,98,5.0,8.0,-999,-99.99,,,-99.99,,2013-02-23 16:11:00,
2013-02-23 11:22:00,42.0,-99.9,30.05,East,82,4.0,6.0,-999,-99.99,,,-99.99,,2013-02-23 16:22:00,
2013-02-23 11:32:00,42.0,-99.9,30.05,East,86,4.0,6.0,-999,-99.99,,,-99.99,,2013-02-23 16:32:00,
2013-02-23 11:42:00,42.0,-99.9,30.05,ENE,76,4.0,7.0,-999,-99.99,,,-99.99,,2013-02-23 16:42:00,
2013-02-23 11:52:00,42.0,-99.9,30.04,ENE,68,4.0,6.0,-999,-99.99,,,-99.99,,2013-02-23 16:52:00,
2013-02-23 12:01:00,42.0,-99.9,30.04,ENE,63,3.0,4.0,-999,-99.99,,,-99.99,,2013-02-23 17:01:00,
2013-02-23 12:11:00,42.0,-99.9,30.03,East,85,3.0,4.0,-999,-99.99,,,-99.99,,2013-02-23 17:11:00,
2013-02-23 12:22:00,43.0,-99.9,30.02,East,92,4.0,6.0,-999,-99.99,,,-99.99,,2013-02-23 17:22:00,
2013-02-23 12:32:00,43.0,-99.9,30.01,East,90,2.0,3.0,-999,-99.99,,,-99.99,,2013-02-23 17:32:00,
2013-02-23 12:42:00,44.0,-99.9,30.00,East,92,3.0,5.0,-999,-99.99,,,-99.99,,2013-02-23 17:42:00,
2013-02-23 12:52:00,44.0,-99.9,30.00,ESE,103,5.0,7.0,-999,-99.99,,,-99.99,,2013-02-23 17:52:00,
2013-02-23 13:02:00,44.0,-99.9,30.00,ESE,104,6.0,9.0,-999,-99.99,,,-99.99,,2013-02-23 18:02:00,
2013-02-23 13:12:00,44.0,-99.9,29.99,ESE,105,4.0,5.0,-999,-99.99,,,-99.99,,2013-02-23 18:12:00,
2013-02-23 13:22:00,44.0,-99.9,29.98,East,94,6.0,8.0,-999,-99.99,,,-99.99,,2013-02-23 18:22:00,
2013-02-23 13:32:00,44.0,-99.9,29.97,ESE,104,5.0,8.0,-999,-99.99,,,-99.99,,2013-02-23 18:32:00,
2013-02-23 13:42:00,45.0,-99.9,29.97,East,98,6.0,9.0,-999,-99.99,,,-99.99,,2013-02-23 18:42:00,
2013-02-23 13:52:00,44.0,-99.9,29.96,East,85,3.0,6.0,-999,-99.99,,,-99.99,,2013-02-23 18:52:00,
2013-02-23 14:01:00,44.0,-99.9,29.96,ENE,63,4.0,6.0,-999,-99.99,,,-99.99,,2013-02-23 19:01:00,
2013-02-23 14:12:00,44.0,-99.9,29.96,East,85,2.0,4.0,-999,-99.99,,,-99.99,,2013-02-23 19:12:00,
2013-02-23 14:22:00,44.0,-99.9,29.96,East,86,2.0,3.0,-999,-99.99,,,-99.99,,2013-02-23 19:22:00,
2013-02-23 14:32:00,44.0,-99.9,29.96,ENE,72,5.0,7.0,-999,-99.99,,,-99.99,,2013-02-23 19:32:00,
2013-02-23 14:42:00,44.0,-99.9,29.96,East,89,3.0,4.0,-999,-99.99,,,-99.99,,2013-02-23 19:42:00,
2013-02-23 14:52:00,44.0,-99.9,29.95,East,92,5.0,8.0,-999,-99.99,,,-99.99,,2013-02-23 19:52:00,
2013-02-23 15:01:00,44.0,-99.9,29.94,East,84,4.0,6.0,-999,-99.99,,,-99.99,,2013-02-23 20:01:00,
2013-02-23 15:11:00,44.0,-99.9,29.94,East,87,5.0,7.0,-999,-99.99,,,-99.99,,2013-02-23 20:11:00,
2013-02-23 15:22:00,44.0,-99.9,29.93,East,91,6.0,9.0,-999,-99.99,,,-99.99,,2013-02-23 20:22:00,
2013-02-23 15:32:00,44.0,-99.9,29.93,East,94,7.0,12.0,-999,-99.99,,,-99.99,,2013-02-23 20:32:00,
2013-02-23 15:42:00,44.0,-99.9,29.93,East,91,6.0,7.0,-999,-99.99,,,-99.99,,2013-02-23 20:42:00,
2013-02-23 15:53:00,44.0,-99.9,29.93,East,89,5.0,11.0,-999,-99.99,,,-99.99,,2013-02-23 20:53:00,
2013-02-23 16:02:00,44.0,-99.9,29.94,East,94,7.0,9.0,-999,-99.99,,,-99.99,,2013-02-23 21:02:00,
2013-02-23 16:12:00,44.0,-99.9,29.94,ESE,102,9.0,11.0,-999,-99.99,,,-99.99,,2013-02-23 21:12:00,
2013-02-23 16:22:00,43.0,-99.9,29.93,East,90,7.0,10.0,-999,-99.99,,,-99.99,,2013-02-23 21:22:00,
2013-02-23 16:32:00,43.0,-99.9,29.93,East,95,7.0,10.0,-999,-99.99,,,-99.99,,2013-02-23 21:32:00,
2013-02-23 16:42:00,43.0,-99.9,29.92,East,96,8.0,12.0,-999,-99.99,,,-99.99,,2013-02-23 21:42:00,
2013-02-23 16:52:00,43.0,-99.9,29.92,East,89,6.0,9.0,-999,-99.99,,,-99.99,,2013-02-23 21:52:00,
2013-02-23 17:02:00,42.0,-99.9,29.92,East,87,5.0,8.0,-999,-99.99,,,-99.99,,2013-02-23 22:02:00,
2013-02-23 17:11:00,42.0,-99.9,29.92,East,84,5.0,7.0,-999,-99.99,,,-99.99,,2013-02-23 22:11:00,
2013-02-23 17:22:00,42.0,-99.9,29.91,East,88,5.0,9.0,-999,-99.99,,,-99.99,,2013-02-23 22:22:00,
2013-02-23 17:32:00,42.0,-99.9,29.91,East,92,5.0,9.0,-999,-99.99,,,-99.99,,2013-02-23 22:32:00,
2013-02-23 17:42:00,42.0,-99.9,29.91,East,84,5.0,8.0,-999,-99.99,,,-99.99,,2013-02-23 22:42:00,
2013-02-23 17:52:00,41.0,-99.9,29.90,East,85,6.0,11.0,-999,-99.99,,,-99.99,,2013-02-23 22:52:00,
2013-02-23 18:02:00,41.0,-99.9,29.90,ENE,58,11.0,15.0,-999,-99.99,,,-99.99,,2013-02-23 23:02:00,
2013-02-23 18:11:00,40.0,-99.9,29.90,ENE,69,10.0,16.0,-999,-99.99,,,-99.99,,2013-02-23 23:11:00,
2013-02-23 18:22:00,40.0,-99.9,29.90,NE,56,10.0,14.0,-999,-99.99,,,-99.99,,2013-02-23 23:22:00,
2013-02-23 18:32:00,40.0,-99.9,29.89,NE,52,12.0,14.0,-999,-99.99,,,-99.99,,2013-02-23 23:32:00,
2013-02-23 18:42:00,40.0,-99.9,29.90,NE,50,8.0,9.0,-999,-99.99,,,-99.99,,2013-02-23 23:42:00,
2013-02-23 18:52:00,40.0,-99.9,29.90,NE,47,9.0,12.0,-999,-99.99,,,-99.99,,2013-02-23 23:52:00,
2013-02-23 19:02:00,40.0,-99.9,29.91,NE,46,10.0,12.0,-999,-99.99,,,-99.99,,2013-02-24 00:02:00,
2013-02-23 19:11:00,40.0,-99.9,29.91,NE,39,7.0,9.0,-999,-99.99,,,-99.99,,2013-02-24 00:11:00,
2013-02-23 19:22:00,40.0,-99.9,29.90,NE,44,10.0,12.0,-999,-99.99,,,-99.99,,2013-02-24 00:22:00,
2013-02-23 19:32:00,40.0,-99.9,29.90,NE,42,11.0,13.0,-999,-99.99,,,-99.99,,2013-02-24 00:32:00,
2013-02-23 19:42:00,39.0,-99.9,29.90,ENE,57,10.0,15.0,-999,-99.99,,,-99.99,,2013-02-24 00:42:00,
2013-02-23 19:52:00,39.0,-99.9,29.89,ENE,57,10.0,15.0,-999,-99.99,,,-99.99,,2013-02-24 00:52:00,
2013-02-23 20:01:00,39.0,-99.9,29.89,ENE,63,9.0,13.0,-999,-99.99,,,-99.99,,2013-02-24 01:01:00,
2013-02-23 20:11:00,38.0,-99.9,29.89,ENE,65,7.0,12.0,-999,-99.99,,,-99.99,,2013-02-24 01:11:00,
2013-02-23 20:22:00,38.0,-99.9,29.88,ENE,65,8.0,12.0,-999,-99.99,,,-99.99,,2013-02-24 01:22:00,
2013-02-23 20:32:00,38.0,-99.9,29.88,ENE,64,10.0,16.0,-999,-99.99,,,-99.99,,2013-02-24 01:32:00,
2013-02-23 20:42:00,38.0,-99.9,29.87,NE,56,9.0,12.0,-999,-99.99,,,-99.99,,2013-02-24 01:42:00,
2013-02-23 20:52:00,38.0,-99.9,29.87,NE,55,12.0,16.0,-999,-99.99,,,-99.99,,2013-02-24 01:52:00,
2013-02-23 21:01:00,38.0,-99.9,29.86,NE,55,11.0,14.0,-999,-99.99,,,-99.99,,2013-02-24 02:01:00,
2013-02-23 21:12:00,38.0,-99.9,29.86,NNE,32,9.0,13.0,-999,-99.99,,,-99.99,,2013-02-24 02:12:00,
2013-02-23 21:22:00,38.0,-99.9,29.85,NNE,29,12.0,16.0,-999,-99.99,,,-99.99,,2013-02-24 02:22:00,
2013-02-23 21:32:00,38.0,-99.9,29.85,NE,44,11.0,14.0,-999,-99.99,,,-99.99,,2013-02-24 02:32:00,
2013-02-23 21:42:00,38.0,-99.9,29.85,NNE,23,9.0,14.0,-999,-99.99,,,-99.99,,2013-02-24 02:42:00,
2013-02-23 21:52:00,38.0,-99.9,29.84,NNE,23,12.0,15.0,-999,-99.99,,,-99.99,,2013-02-24 02:52:00,
2013-02-23 22:02:00,37.0,-99.9,29.84,NNE,24,11.0,14.0,-999,-99.99,,,-99.99,,2013-02-24 03:02:00,
2013-02-23 22:12:00,37.0,-99.9,29.83,NNE,25,11.0,14.0,-999,-99.99,,,-99.99,,2013-02-24 03:12:00,
2013-02-23 22:22:00,37.0,-99.9,29.83,NNE,20,10.0,15.0,-999,-99.99,,,-99.99,,2013-02-24 03:22:00,
2013-02-23 22:32:00,37.0,-99.9,29.83,NNE,30,8.0,11.0,-999,-99.99,,,-99.99,,2013-02-24 03:32:00,
2013-02-23 22:42:00,37.0,-99.9,29.83,NE,34,8.0,10.0,-999,-99.99,,,-99.99,,2013-02-24 03:42:00,
2013-02-23 22:52:00,37.0,-99.9,29.82,NNE,24,7.0,9.0,-999,-99.99,,,-99.99,,2013-02-24 03:52:00,
2013-02-23 23:02:00,37.0,-99.9,29.82,NNE,21,9.0,12.0,-999,-99.99,,,-99.99,,2013-02-24 04:02:00,
2013-02-23 23:11:00,37.0,-99.9,29.82,NNE,21,8.0,9.0,-999,-99.99,,,-99.99,,2013-02-24 04:11:00,
2013-02-23 23:22:00,37.0,-99.9,29.81,NNE,23,11.0,14.0,-999,-99.99,,,-99.99,,2013-02-24 04:22:00,
2013-02-23 23:32:00,37.0,-99.9,29.81,NNE,23,11.0,14.0,-999,-99.99,,,-99.99,,2013-02-24 04:32:00,
2013-02-23 23:42:00,37.0,-99.9,29.80,NNE,13,11.0,13.0,-999,-99.99,,,-99.99,,2013-02-24 04:42:00,
2013-02-23 23:52:00,38.0,-99.9,29.80,NNE,23,11.0,13.0,-999,-99.99,,,-99.99,,2013-02-24 04:52:00,